Flight Track Log - Related Links

Times and Time Zones

All times are in EDT time to prevent confusion due to time zone crossing. See the N693C flight status page for this flight to view local times or setup timezone preferences in your user account.

Time Position Orientation Groundspeed Altitude Reporting Facility
EDT Latitude Longitude Course Direction KTS MPH feet Rate Location/Type
Sat 11:22:59 AM 35.8914 -78.7806 306° West 98 113 1,400  Level Washington Center
Sat 11:24:00 AM 35.9097 -78.8114 306° West 123 142 2,200 733 Climbing Washington Center
Sat 11:25:10 AM 35.8864 -78.8353 220° Southwest 142 163 3,000 397 Climbing Washington Center
Sat 11:26:01 AM 35.8447 -78.8339 178° South 177 204 3,000 -54 Level Washington Center
Sat 11:27:02 AM 35.7925 -78.8322 179° South 175 201 2,900 -82 Descending Washington Center
Sat 11:27:14 AM 35.7922 -78.8317 122° Southeast 166 191 2,900 98 Level Washington Center
Sat 11:28:03 AM 35.7597 -78.8717 225° Southwest 167 192 3,000 98 Climbing Washington Center
Sat 11:28:15 AM 35.7594 -78.8719 219° Southwest 168 193 3,000  Level Washington Center
Sat 11:29:01 AM 35.7286 -78.9139 228° Southwest 166 191 3,000  Level Washington Center
Sat 11:29:16 AM 35.7225 -78.9219 227° Southwest 168 193 3,000  Level Washington Center
Sat 11:30:02 AM 35.6978 -78.9561 228° Southwest 167 192 3,000 -94 Level Washington Center
Sat 11:30:20 AM 35.6911 -78.9639 223° Southwest 168 193 2,900  Descending Washington Center
Sat 11:31:21 AM 35.6603 -79.0064 228° Southwest 168 193 3,000 48 Climbing Washington Center
Sat 11:32:25 AM 35.6289 -79.0481 227° Southwest 168 193 3,000 -48 Level Washington Center
Sat 11:33:25 AM 35.5936 -79.0972 229° Southwest 168 193 2,900  Descending Washington Center
Sat 11:34:30 AM 35.5617 -79.1408 228° Southwest 169 194 3,000 48 Climbing Washington Center
Sat 11:35:30 AM 35.5272 -79.1861 227° Southwest 170 196 3,000  Level Washington Center
Sat 11:36:34 AM 35.4964 -79.2275 228° Southwest 168 193 3,000  Level Washington Center
Sat 11:37:34 AM 35.4633 -79.2719 228° Southwest 166 191 3,000  Level Washington Center
Sat 11:38:36 AM 35.4300 -79.3158 227° Southwest 166 191 3,000  Level Washington Center

Login

Don't have an account? Register now (free) for customized features, flight alerts, and more!